Terminal Aerodrome Forecast
Issued by NWS

Home | Current Version | Previous Version | Text Only | Print | Product List | Glossary On
Versions: 1 2 3 4 5 6 7 8 9 10 11 12 13
000
FTUS45 KRIW 252300
TAFJAC
TAF
KJAC 252331Z 2600/2624 20010KT P6SM VCSH SCT080 BKN150
     FM260300 30007KT P6SM VCSH SCT030 BKN050
     FM260600 35011KT P6SM VCSH BKN030
     FM260800 06008KT 5SM -RASN SCT005 BKN015 OVC025
     FM261000 05009KT 2SM -SNRA SCT005 OVC015
     FM261800 VRB06KT 5SM -RA SCT005 OVC015
      AMD LTD TO CLD VIS AND WIND=

USA.gov is the U.S. government's official web portal to all federal, state and local government web resources and services.